createdAt,value
2022-12-06T00:02:23.339Z,7.07
2022-12-06T00:04:53.303Z,7.35
2022-12-06T00:07:23.204Z,6.78
2022-12-06T00:09:55.714Z,7.88
2022-12-06T00:12:25.529Z,7.07
2022-12-06T00:14:55.550Z,7.30
2022-12-06T00:17:25.435Z,7.63
2022-12-06T00:19:55.335Z,7.00
2022-12-06T00:22:25.335Z,6.75
2022-12-06T00:24:57.835Z,6.15
2022-12-06T00:27:27.889Z,6.20
2022-12-06T00:29:58.076Z,5.90
2022-12-06T00:32:28.228Z,6.80
2022-12-06T00:34:58.178Z,7.00
2022-12-06T00:37:28.093Z,7.22
2022-12-06T00:40:01.316Z,6.57
2022-12-06T00:42:31.506Z,6.40
2022-12-06T00:45:02.709Z,6.30
2022-12-06T00:47:32.642Z,6.95
2022-12-06T00:50:02.506Z,6.38
2022-12-06T00:52:32.906Z,5.90
2022-12-06T00:55:05.381Z,6.32
2022-12-06T00:57:35.501Z,6.53
2022-12-06T01:00:05.505Z,6.28
2022-12-06T01:02:35.356Z,6.35
2022-12-06T01:05:05.198Z,5.93
2022-12-06T01:07:35.109Z,6.13
2022-12-06T01:10:09.186Z,6.25
2022-12-06T01:12:38.921Z,5.70
2022-12-06T01:15:09.813Z,6.55
2022-12-06T01:17:39.553Z,5.95
2022-12-06T01:20:10.413Z,6.22
2022-12-06T01:22:40.138Z,6.65
2022-12-06T01:25:12.581Z,6.18
2022-12-06T01:27:42.285Z,5.55
2022-12-06T01:30:12.713Z,6.32
2022-12-06T01:32:42.442Z,5.68
2022-12-06T01:35:12.393Z,6.07
2022-12-06T01:37:42.116Z,5.90
2022-12-06T01:40:15.873Z,6.82
2022-12-06T01:42:45.681Z,5.90
2022-12-06T01:45:15.369Z,6.38
2022-12-06T01:47:46.841Z,6.57
2022-12-06T01:50:21.017Z,6.53
2022-12-06T01:52:56.318Z,6.30
2022-12-06T01:55:31.783Z,7.00
2022-12-06T01:58:09.109Z,6.40
2022-12-06T02:00:38.825Z,6.57
2022-12-06T02:03:16.223Z,6.57
2022-12-06T02:05:46.171Z,6.22
2022-12-06T02:08:17.317Z,6.07
2022-12-06T02:10:49.688Z,5.93
2022-12-06T02:13:19.768Z,5.68
2022-12-06T02:15:59.030Z,5.72
2022-12-06T02:18:37.730Z,5.82
2022-12-06T02:21:18.886Z,5.43
2022-12-06T02:24:18.518Z,6.00
2022-12-06T02:26:54.166Z,5.82
2022-12-06T02:32:24.095Z,5.60
2022-12-06T02:35:01.157Z,5.88
2022-12-06T02:37:35.572Z,6.15
2022-12-06T02:40:09.600Z,5.45
2022-12-06T02:42:44.673Z,5.60
2022-12-06T02:45:18.405Z,3.75
2022-12-06T02:47:53.856Z,4.65
2022-12-06T02:50:29.421Z,5.13
2022-12-06T02:53:03.985Z,4.90
2022-12-06T02:55:35.719Z,4.50
2022-12-06T02:58:05.765Z,5.57
2022-12-06T03:00:40.682Z,5.60
2022-12-06T03:03:42.910Z,5.10
2022-12-06T03:06:28.429Z,5.15
2022-12-06T03:09:09.108Z,5.45
2022-12-06T03:11:51.457Z,4.70
2022-12-06T03:14:25.620Z,5.28
2022-12-06T03:17:01.990Z,4.57
2022-12-06T03:19:35.715Z,4.97
2022-12-06T03:22:09.313Z,4.93
2022-12-06T03:24:42.241Z,4.47
2022-12-06T03:27:15.355Z,4.15
2022-12-06T03:29:49.163Z,4.65
2022-12-06T03:32:23.422Z,4.25
2022-12-06T03:35:00.135Z,4.72
2022-12-06T03:37:33.040Z,4.93
2022-12-06T03:40:10.182Z,4.53
2022-12-06T03:42:40.493Z,4.97
2022-12-06T03:45:14.323Z,4.93
2022-12-06T03:47:51.244Z,4.38
2022-12-06T03:50:28.801Z,4.85
2022-12-06T03:52:58.725Z,4.45
2022-12-06T03:55:29.760Z,4.60
2022-12-06T03:57:59.537Z,4.75
2022-12-06T04:00:29.226Z,4.68
2022-12-06T04:02:58.906Z,4.43
2022-12-06T04:05:32.461Z,4.35
2022-12-06T04:08:02.239Z,4.20
2022-12-06T04:10:32.160Z,4.10
2022-12-06T04:13:06.257Z,4.40
2022-12-06T04:15:38.917Z,4.32
2022-12-06T04:18:10.997Z,4.20
2022-12-06T04:21:01.010Z,4.30
2022-12-06T04:23:31.587Z,4.15
2022-12-06T04:26:01.327Z,3.90
2022-12-06T04:28:43.594Z,3.85
2022-12-06T04:31:26.281Z,4.15
2022-12-06T04:34:08.630Z,4.28
2022-12-06T04:36:54.347Z,4.05
2022-12-06T04:39:24.118Z,4.13
2022-12-06T04:42:06.425Z,4.05
2022-12-06T04:44:36.299Z,4.00
2022-12-06T04:47:06.608Z,3.97
2022-12-06T04:49:36.645Z,4.00
2022-12-06T04:52:10.687Z,4.25
2022-12-06T04:54:40.651Z,3.92
2022-12-06T04:57:11.369Z,4.35
2022-12-06T04:59:42.183Z,4.57
2022-12-06T05:02:15.525Z,4.32
2022-12-06T05:04:45.486Z,4.53
2022-12-06T05:07:17.792Z,4.40
2022-12-06T05:09:47.542Z,4.35
2022-12-06T05:12:17.228Z,4.32
2022-12-06T05:14:46.947Z,4.00
2022-12-06T05:17:16.632Z,4.90
2022-12-06T05:19:46.375Z,4.00
2022-12-06T05:22:18.637Z,4.35
2022-12-06T05:24:48.488Z,4.22
2022-12-06T05:27:18.218Z,4.82
2022-12-06T05:29:47.922Z,4.70
2022-12-06T05:32:17.623Z,4.68
2022-12-06T05:34:47.699Z,4.10
2022-12-06T05:37:20.917Z,4.75
2022-12-06T05:39:50.722Z,5.10
2022-12-06T05:42:22.556Z,4.43
2022-12-06T05:44:52.534Z,4.80
2022-12-06T05:47:22.274Z,4.75
2022-12-06T05:49:51.957Z,4.45
2022-12-06T05:52:24.222Z,4.43
2022-12-06T05:54:53.944Z,4.22
2022-12-06T05:57:23.745Z,4.68
2022-12-06T05:59:53.517Z,4.45
2022-12-06T06:02:23.232Z,5.00
2022-12-06T06:04:53.377Z,4.60
2022-12-06T06:07:25.678Z,4.38
2022-12-06T06:09:55.368Z,4.70
2022-12-06T06:12:25.082Z,4.88
2022-12-06T06:14:54.804Z,4.20
2022-12-06T06:17:24.487Z,4.50
2022-12-06T06:19:54.533Z,4.38
2022-12-06T06:22:26.820Z,4.22
2022-12-06T06:24:56.537Z,4.38
2022-12-06T06:27:26.222Z,4.82
2022-12-06T06:29:56.001Z,4.22
2022-12-06T06:32:25.748Z,5.30
2022-12-06T06:34:55.409Z,4.82
2022-12-06T06:37:27.728Z,4.50
2022-12-06T06:39:57.678Z,4.72
2022-12-06T06:42:27.746Z,4.70
2022-12-06T06:44:57.459Z,3.70
2022-12-06T06:47:27.365Z,3.38
2022-12-06T06:49:57.104Z,3.28
2022-12-06T06:52:29.718Z,3.22
2022-12-06T06:54:59.389Z,3.00
2022-12-06T06:57:29.123Z,2.78
2022-12-06T06:59:59.385Z,2.88
2022-12-06T07:02:29.284Z,2.63
2022-12-06T07:04:59.067Z,2.63
2022-12-06T07:07:31.636Z,2.47
2022-12-06T07:10:01.654Z,2.15
2022-12-06T07:12:31.628Z,2.22
2022-12-06T07:15:01.683Z,2.10
2022-12-06T07:17:31.426Z,2.20
2022-12-06T07:20:01.470Z,2.00
2022-12-06T07:22:35.617Z,2.00
2022-12-06T07:25:05.743Z,2.03
2022-12-06T07:27:37.695Z,2.00
2022-12-06T07:30:11.311Z,1.60
2022-12-06T07:32:44.218Z,1.70
2022-12-06T07:35:13.991Z,1.80
2022-12-06T07:37:48.310Z,1.80
2022-12-06T07:40:30.721Z,1.50
2022-12-06T07:43:24.714Z,1.70
2022-12-06T07:45:54.503Z,1.67
2022-12-06T07:48:24.350Z,1.40
2022-12-06T07:50:54.605Z,2.13
2022-12-06T07:53:26.986Z,1.63
2022-12-06T07:55:56.657Z,1.80
2022-12-06T07:58:26.402Z,1.30
2022-12-06T08:00:56.103Z,1.42
2022-12-06T08:03:26.860Z,1.40
2022-12-06T08:05:57.394Z,1.40
2022-12-06T08:08:30.039Z,1.48
2022-12-06T08:11:01.742Z,1.50
2022-12-06T08:13:32.046Z,1.58
2022-12-06T08:16:02.223Z,1.55
2022-12-06T08:18:33.966Z,1.75
2022-12-06T08:21:03.714Z,1.88
2022-12-06T08:23:36.360Z,2.05
2022-12-06T08:26:08.694Z,2.08
2022-12-06T08:28:40.114Z,1.60
2022-12-06T08:31:11.528Z,1.40
2022-12-06T08:33:41.637Z,1.63
2022-12-06T08:36:13.003Z,1.48
2022-12-06T08:38:45.690Z,1.88
2022-12-06T08:41:27.946Z,1.60
2022-12-06T08:43:58.371Z,1.55
2022-12-06T08:46:28.587Z,1.60
2022-12-06T08:48:58.726Z,1.60
2022-12-06T08:51:29.904Z,1.70
2022-12-06T08:54:02.339Z,1.60
2022-12-06T08:56:32.186Z,1.40
2022-12-06T08:59:02.028Z,1.48
2022-12-06T09:01:37.851Z,1.40
2022-12-06T09:04:09.922Z,1.70
2022-12-06T09:06:41.508Z,1.33
2022-12-06T09:09:15.162Z,1.33
2022-12-06T09:11:45.829Z,1.58
2022-12-06T09:14:21.514Z,1.90
2022-12-06T09:16:53.885Z,1.75
2022-12-06T09:19:23.696Z,1.60
2022-12-06T09:21:53.452Z,1.65
2022-12-06T09:24:25.763Z,1.67
2022-12-06T09:26:55.495Z,1.55
2022-12-06T09:29:25.558Z,1.60
2022-12-06T09:31:55.280Z,1.20
2022-12-06T09:34:25.165Z,1.70
2022-12-06T09:37:00.265Z,1.23
2022-12-06T09:39:36.427Z,1.33
2022-12-06T09:42:33.174Z,1.20
2022-12-06T09:45:13.209Z,1.30
2022-12-06T09:48:03.113Z,1.40
2022-12-06T09:50:44.949Z,1.38
2022-12-06T09:53:26.698Z,1.30
2022-12-06T09:56:09.206Z,1.30
2022-12-06T09:58:53.131Z,1.38
2022-12-06T10:01:29.521Z,1.40
2022-12-06T10:04:25.767Z,1.73
2022-12-06T10:07:07.810Z,1.25
2022-12-06T10:09:48.169Z,1.40
2022-12-06T10:12:36.431Z,1.30
2022-12-06T10:15:18.372Z,1.45
2022-12-06T10:18:06.266Z,1.70
2022-12-06T10:20:44.437Z,1.90
2022-12-06T10:23:27.672Z,1.70
2022-12-06T10:26:07.588Z,1.77
2022-12-06T10:28:48.310Z,1.70
2022-12-06T10:31:31.089Z,1.55
2022-12-06T10:34:07.571Z,1.17
2022-12-06T10:36:47.480Z,1.40
2022-12-06T10:39:23.138Z,1.50
2022-12-06T10:42:01.111Z,1.17
2022-12-06T10:44:38.063Z,1.73
2022-12-06T10:47:12.305Z,1.30
2022-12-06T10:49:55.271Z,1.25
2022-12-06T10:52:37.076Z,1.17
2022-12-06T10:55:22.194Z,0.98
2022-12-06T10:57:58.279Z,0.60
2022-12-06T11:00:33.959Z,1.42
2022-12-06T11:03:13.194Z,1.60
2022-12-06T11:05:46.383Z,1.60
2022-12-06T11:08:22.578Z,1.92
2022-12-06T11:10:54.488Z,1.73
2022-12-06T11:13:29.921Z,1.80
2022-12-06T11:16:08.112Z,1.50
2022-12-06T11:18:38.567Z,1.60
2022-12-06T11:21:21.091Z,1.63
2022-12-06T11:23:58.982Z,1.20
2022-12-06T11:26:37.610Z,1.50
2022-12-06T11:29:14.130Z,1.77
2022-12-06T11:31:49.724Z,1.58
2022-12-06T11:34:23.149Z,2.00
2022-12-06T11:36:59.891Z,1.23
2022-12-06T11:39:34.349Z,1.50
2022-12-06T11:42:07.125Z,1.60
2022-12-06T11:44:48.058Z,1.65
2022-12-06T11:47:24.531Z,1.90
2022-12-06T11:50:00.378Z,1.70
2022-12-06T11:52:39.403Z,1.90
2022-12-06T11:55:18.109Z,1.83
2022-12-06T11:57:52.963Z,2.20
2022-12-06T12:00:24.534Z,2.43
2022-12-06T12:02:59.571Z,2.58
2022-12-06T12:05:34.486Z,2.83
2022-12-06T12:08:08.241Z,2.70
2022-12-06T12:10:39.763Z,2.97
2022-12-06T12:13:36.762Z,3.22
2022-12-06T12:16:14.500Z,2.53
2022-12-06T12:18:55.091Z,2.72
2022-12-06T12:21:41.738Z,2.47
2022-12-06T12:27:46.036Z,2.47
2022-12-06T12:30:35.430Z,2.70
2022-12-06T12:33:20.326Z,2.40
2022-12-06T12:35:55.366Z,2.58
2022-12-06T12:38:41.456Z,2.53
2022-12-06T12:41:26.192Z,2.75
2022-12-06T12:44:35.710Z,3.05
2022-12-06T12:46:59.868Z,2.78
2022-12-06T12:49:32.920Z,2.97
2022-12-06T12:52:24.193Z,3.47
2022-12-06T12:55:02.414Z,3.40
2022-12-06T12:57:32.548Z,3.85
2022-12-06T13:00:04.312Z,3.58
2022-12-06T13:02:37.852Z,4.30
2022-12-06T13:05:34.219Z,4.10
2022-12-06T13:08:14.700Z,4.22
2022-12-06T13:10:47.320Z,4.90
2022-12-06T13:13:20.144Z,5.72
2022-12-06T13:15:52.568Z,5.30
2022-12-06T13:18:25.585Z,5.70
2022-12-06T13:20:57.824Z,6.32
2022-12-06T13:23:34.049Z,5.78
2022-12-06T13:26:09.961Z,5.60
2022-12-06T13:28:44.691Z,6.60
2022-12-06T13:31:19.099Z,6.30
2022-12-06T13:33:54.989Z,5.65
2022-12-06T13:36:27.044Z,5.47
2022-12-06T13:38:59.418Z,6.00
2022-12-06T13:42:07.194Z,5.75
2022-12-06T13:44:44.393Z,5.80
2022-12-06T13:47:53.039Z,5.60
2022-12-06T13:50:54.634Z,5.47
2022-12-06T13:53:26.346Z,5.97
2022-12-06T13:56:02.366Z,5.13
2022-12-06T13:58:52.915Z,5.43
2022-12-06T14:01:40.567Z,5.35
2022-12-06T14:09:43.023Z,6.05
2022-12-06T14:12:21.548Z,6.43
2022-12-06T14:14:59.266Z,6.22
2022-12-06T14:18:01.554Z,5.82
2022-12-06T14:20:30.217Z,5.63
2022-12-06T14:23:00.175Z,6.10
2022-12-06T14:25:31.915Z,6.45
2022-12-06T14:28:09.557Z,6.85
2022-12-06T14:30:39.498Z,6.57
2022-12-06T14:33:20.793Z,7.07
2022-12-06T14:35:53.281Z,6.85
2022-12-06T14:38:25.848Z,6.80
2022-12-06T14:41:08.802Z,5.80
2022-12-06T14:43:42.441Z,5.18
2022-12-06T14:46:17.285Z,4.95
2022-12-06T14:49:00.470Z,5.30
2022-12-06T14:51:38.648Z,5.53
2022-12-06T14:54:20.508Z,4.93
2022-12-06T14:56:50.320Z,4.13
2022-12-06T15:00:11.077Z,4.38
2022-12-06T15:02:25.362Z,3.90
2022-12-06T15:04:55.124Z,4.03
2022-12-06T15:07:36.356Z,3.58
2022-12-06T15:10:25.403Z,4.22
2022-12-06T15:12:55.934Z,3.60
2022-12-06T15:15:40.625Z,5.13
2022-12-06T15:18:19.750Z,4.68
2022-12-06T15:20:51.600Z,7.15
2022-12-06T15:23:29.547Z,7.25
2022-12-06T15:25:59.928Z,6.95
2022-12-06T15:28:29.915Z,8.15
2022-12-06T15:31:02.391Z,6.10
2022-12-06T15:33:32.248Z,7.20
2022-12-06T15:36:02.254Z,6.55
2022-12-06T15:38:32.008Z,7.00
2022-12-06T15:41:01.797Z,8.23
2022-12-06T15:43:33.939Z,8.10
2022-12-06T15:46:07.861Z,8.52
2022-12-06T15:48:37.602Z,8.52
2022-12-06T15:51:11.201Z,7.55
2022-12-06T15:53:42.745Z,7.22
2022-12-06T15:56:17.540Z,6.85
2022-12-06T15:58:48.525Z,6.97
2022-12-06T16:01:24.325Z,6.72
2022-12-06T16:06:27.182Z,6.13
2022-12-06T16:08:57.391Z,6.50
2022-12-06T16:11:29.118Z,6.80
2022-12-06T16:13:58.882Z,5.82
2022-12-06T16:16:31.483Z,6.32
2022-12-06T16:19:01.994Z,7.55
2022-12-06T16:21:33.573Z,7.45
2022-12-06T16:24:17.727Z,6.85
2022-12-06T16:26:48.143Z,8.15
2022-12-06T16:29:21.065Z,8.02
2022-12-06T16:31:54.517Z,8.50
2022-12-06T16:34:25.108Z,7.60
2022-12-06T16:37:00.594Z,8.75
2022-12-06T16:39:33.680Z,7.57
2022-12-06T16:42:04.142Z,7.97
2022-12-06T16:44:33.958Z,7.10
2022-12-06T16:47:10.686Z,7.80
2022-12-06T16:49:47.453Z,7.13
2022-12-06T16:52:18.288Z,7.50
2022-12-06T16:54:48.353Z,7.50
2022-12-06T16:57:19.575Z,7.70
2022-12-06T16:59:49.356Z,7.72
2022-12-06T17:02:29.074Z,7.47
2022-12-06T17:05:01.115Z,7.47
2022-12-06T17:07:31.542Z,7.32
2022-12-06T17:10:01.414Z,7.97
2022-12-06T17:12:32.451Z,7.30
2022-12-06T17:15:03.424Z,7.70
2022-12-06T17:17:36.451Z,8.55
2022-12-06T17:20:08.129Z,7.78
2022-12-06T17:22:38.157Z,7.13
2022-12-06T17:25:08.863Z,8.15
2022-12-06T17:27:40.032Z,7.82
2022-12-06T17:30:17.685Z,7.38
2022-12-06T17:32:50.411Z,8.57
2022-12-06T17:35:20.432Z,8.93
2022-12-06T17:37:50.125Z,8.50
2022-12-06T17:40:20.099Z,8.05
2022-12-06T17:43:02.489Z,8.25
2022-12-06T17:45:32.283Z,8.05
2022-12-06T17:48:04.632Z,7.80
2022-12-06T17:50:35.838Z,7.95
2022-12-06T17:53:05.580Z,8.10
2022-12-06T17:55:35.302Z,8.55
2022-12-06T17:58:05.066Z,8.88
2022-12-06T18:00:34.867Z,8.60
2022-12-06T18:03:07.170Z,8.75
2022-12-06T18:05:36.887Z,8.68
2022-12-06T18:08:06.712Z,8.23
2022-12-06T18:10:36.438Z,7.38
2022-12-06T18:13:07.782Z,8.00
2022-12-06T18:15:41.881Z,7.45
2022-12-06T18:18:14.195Z,7.45
2022-12-06T18:20:44.058Z,8.60
2022-12-06T18:23:15.000Z,7.85
2022-12-06T18:25:44.904Z,7.38
2022-12-06T18:28:14.771Z,7.78
2022-12-06T18:30:44.608Z,6.93
2022-12-06T18:33:20.747Z,7.43
2022-12-06T18:35:53.585Z,7.70
2022-12-06T18:38:23.288Z,7.43
2022-12-06T18:40:52.987Z,7.43
2022-12-06T18:43:22.737Z,7.00
2022-12-06T18:45:59.553Z,6.82
2022-12-06T18:48:33.567Z,6.90
2022-12-06T18:51:07.813Z,6.65
2022-12-06T18:53:37.774Z,6.97
2022-12-06T18:56:11.452Z,7.18
2022-12-06T18:58:41.150Z,8.05
2022-12-06T19:01:15.227Z,7.10
2022-12-06T19:03:48.738Z,8.98
2022-12-06T19:06:22.560Z,7.75
2022-12-06T19:08:56.587Z,7.25
2022-12-06T19:11:26.903Z,8.00
2022-12-06T19:13:57.895Z,8.23
2022-12-06T19:16:29.798Z,8.70
2022-12-06T19:19:03.629Z,8.55
2022-12-06T19:21:34.585Z,7.18
2022-12-06T19:24:04.801Z,7.57
2022-12-06T19:26:35.023Z,7.22
2022-12-06T19:29:05.996Z,7.75
2022-12-06T19:31:35.996Z,8.10
2022-12-06T19:34:08.386Z,7.70
2022-12-06T19:36:38.142Z,7.68
2022-12-06T19:39:08.851Z,7.47
2022-12-06T19:41:59.070Z,7.90
2022-12-06T19:44:26.846Z,7.85
2022-12-06T19:46:56.629Z,7.47
2022-12-06T19:49:30.014Z,6.82
2022-12-06T19:51:59.994Z,6.47
2022-12-06T19:54:31.780Z,6.35
2022-12-06T19:57:03.387Z,7.03
2022-12-06T19:59:35.620Z,7.22
2022-12-06T20:02:06.041Z,6.70
2022-12-06T20:04:41.677Z,6.75
2022-12-06T20:07:12.280Z,6.40
2022-12-06T20:09:42.067Z,6.85
2022-12-06T20:12:13.712Z,7.22
2022-12-06T20:14:45.652Z,6.57
2022-12-06T20:17:17.247Z,7.78
2022-12-06T20:19:49.874Z,6.97
2022-12-06T20:22:22.842Z,7.25
2022-12-06T20:24:52.675Z,7.07
2022-12-06T20:27:43.455Z,7.13
2022-12-06T20:30:14.883Z,6.82
2022-12-06T20:32:45.342Z,6.80
2022-12-06T20:35:18.248Z,6.93
2022-12-06T20:37:48.157Z,6.20
2022-12-06T20:40:18.067Z,6.45
2022-12-06T20:42:49.645Z,6.57
2022-12-06T20:45:20.547Z,5.80
2022-12-06T20:47:53.743Z,6.03
2022-12-06T20:50:26.428Z,6.05
2022-12-06T20:52:56.103Z,6.10
2022-12-06T20:55:26.332Z,5.53
2022-12-06T20:57:56.100Z,5.25
2022-12-06T21:00:26.078Z,6.15
2022-12-06T21:02:56.704Z,5.80
2022-12-06T21:05:29.239Z,5.75
2022-12-06T21:07:59.089Z,5.53
2022-12-06T21:10:28.993Z,5.20
2022-12-06T21:13:01.469Z,5.18
2022-12-06T21:15:35.508Z,5.32
2022-12-06T21:18:05.222Z,5.22
2022-12-06T21:20:40.146Z,4.80
2022-12-06T21:23:09.907Z,5.03
2022-12-06T21:25:39.940Z,5.40
2022-12-06T21:28:09.641Z,5.00
2022-12-06T21:30:39.383Z,5.15
2022-12-06T21:33:09.574Z,5.20
2022-12-06T21:35:42.309Z,5.40
2022-12-06T21:38:12.025Z,5.05
2022-12-06T21:40:42.100Z,5.05
2022-12-06T21:43:12.916Z,5.18
2022-12-06T21:45:43.875Z,5.13
2022-12-06T21:48:13.554Z,4.85
2022-12-06T21:50:46.121Z,4.97
2022-12-06T21:53:15.850Z,5.35
2022-12-06T21:55:45.557Z,5.18
2022-12-06T21:58:15.532Z,5.43
2022-12-06T22:00:45.258Z,5.28
2022-12-06T22:03:20.962Z,5.78
2022-12-06T22:05:55.121Z,5.93
2022-12-06T22:08:24.948Z,5.18
2022-12-06T22:10:55.177Z,5.47
2022-12-06T22:13:24.870Z,5.30
2022-12-06T22:15:54.599Z,5.75
2022-12-06T22:18:24.406Z,6.47
2022-12-06T22:21:02.566Z,5.25
2022-12-06T22:23:33.773Z,5.80
2022-12-06T22:26:08.007Z,5.30
2022-12-06T22:28:38.409Z,3.88
2022-12-06T22:31:12.709Z,3.97
2022-12-06T22:33:42.751Z,3.47
2022-12-06T22:36:15.941Z,3.28
2022-12-06T22:38:45.802Z,3.58
2022-12-06T22:41:15.480Z,3.60
2022-12-06T22:43:45.252Z,3.20
2022-12-06T22:46:17.347Z,4.15
2022-12-06T22:48:47.399Z,3.50
2022-12-06T22:51:21.791Z,3.45
2022-12-06T22:53:57.169Z,3.70
2022-12-06T22:56:27.179Z,4.07
2022-12-06T22:58:57.661Z,3.95
2022-12-06T23:01:30.257Z,4.05
2022-12-06T23:04:02.760Z,4.45
2022-12-06T23:06:36.131Z,4.53
2022-12-06T23:09:06.199Z,4.28
2022-12-06T23:11:37.814Z,4.55
2022-12-06T23:14:08.233Z,4.60
2022-12-06T23:16:38.369Z,5.00
2022-12-06T23:19:08.297Z,5.65
2022-12-06T23:21:40.976Z,6.10
2022-12-06T23:24:14.371Z,5.80
2022-12-06T23:26:48.992Z,5.45
2022-12-06T23:29:22.875Z,5.32
2022-12-06T23:31:52.722Z,5.32
2022-12-06T23:34:26.704Z,5.55
2022-12-06T23:36:59.198Z,5.22
2022-12-06T23:39:28.942Z,5.30
2022-12-06T23:41:58.962Z,5.00
2022-12-06T23:44:28.684Z,5.18
2022-12-06T23:46:58.372Z,5.60
2022-12-06T23:49:28.113Z,5.47
2022-12-06T23:52:00.637Z,5.55
2022-12-06T23:54:30.385Z,5.47
2022-12-06T23:57:00.082Z,5.72
2022-12-06T23:59:29.810Z,5.65
